Time;durP1;ratioP1;P1;durP2;ratioP2;P2;SDS_P1;SDS_P2;PMS_P1;PMS_P2;Temp;Humidity;BMP_temperature;BMP_pressure;BME280_temperature;BME280_humidity;BME280_pressure;Samples;Min_cycle;Max_cycle;Signal;HPM_P1;HPM_P2
2022/05/03 00:01:36;;;;;;;1999.90;999.90;;;15.40;51.70;;;;;;5018300;28;20037;-80
2022/05/03 00:04:24;;;;;;;1999.90;999.90;;;15.30;51.70;;;;;;5027158;28;20047;-80
2022/05/03 00:07:16;;;;;;;1999.90;999.90;;;15.30;51.80;;;;;;5028431;28;20037;-80
2022/05/03 00:10:04;;;;;;;1999.90;999.90;;;15.30;51.80;;;;;;4955618;28;20035;-80
2022/05/03 00:12:42;;;;;;;1999.90;999.90;;;15.30;52.00;;;;;;4933094;28;20035;-80
2022/05/03 00:15:08;;;;;;;1999.90;999.90;;;15.20;52.00;;;;;;4971398;28;20412;-80
2022/05/03 00:17:35;;;;;;;1999.90;999.90;;;15.20;52.00;;;;;;4956287;28;20530;-80
2022/05/03 00:20:02;;;;;;;1999.90;999.90;;;15.10;52.00;;;;;;4939920;28;20476;-80
2022/05/03 00:22:29;;;;;;;1999.90;999.90;;;15.10;52.10;;;;;;4971718;28;20043;-80
2022/05/03 00:24:55;;;;;;;1999.90;999.90;;;15.10;52.20;;;;;;4940284;28;20045;-80
2022/05/03 00:27:25;;;;;;;1999.90;999.90;;;15.10;52.90;;;;;;4955381;28;20043;-80
2022/05/03 00:29:52;;;;;;;1999.90;999.90;;;15.10;52.30;;;;;;4956411;28;20031;-80
2022/05/03 00:32:20;;;;;;;1999.90;999.90;;;15.00;52.30;;;;;;4955161;28;20042;-80
2022/05/03 00:34:47;;;;;;;1999.90;999.90;;;15.00;52.40;;;;;;4939507;28;20043;-80
2022/05/03 00:37:14;;;;;;;1999.90;999.90;;;15.00;52.50;;;;;;4955740;28;20046;-80
2022/05/03 00:39:40;;;;;;;1999.90;999.90;;;15.00;52.50;;;;;;4955128;28;20038;-80
2022/05/03 00:42:09;;;;;;;1999.90;999.90;;;14.90;52.60;;;;;;4974980;28;20042;-80
2022/05/03 00:45:12;;;;;;;1999.90;999.90;;;14.90;52.80;;;;;;4975239;28;20022;-80
2022/05/03 00:47:39;;;;;;;1999.90;999.90;;;14.80;53.00;;;;;;5027383;28;20056;-80
2022/05/03 00:50:06;;;;;;;1999.90;999.90;;;14.80;53.00;;;;;;5030053;28;20026;-80
2022/05/03 00:52:47;;;;;;;1999.90;999.90;;;14.70;53.00;;;;;;5040538;28;20044;-80
2022/05/03 00:55:16;;;;;;;1999.90;999.90;;;14.80;53.10;;;;;;5029825;28;20025;-80
2022/05/03 00:58:15;;;;;;;1999.90;999.90;;;14.70;53.10;;;;;;5029569;28;20041;-80
2022/05/03 01:01:07;;;;;;;1999.90;999.90;;;14.70;53.10;;;;;;5012791;28;20030;-80
2022/05/03 01:03:47;;;;;;;1999.90;999.90;;;14.70;53.20;;;;;;4992165;28;20139;-80
2022/05/03 01:06:19;;;;;;;1999.90;999.90;;;14.70;53.20;;;;;;5007752;28;20036;-80
2022/05/03 01:09:05;;;;;;;1999.90;999.90;;;14.60;53.10;;;;;;5013511;28;20141;-80
2022/05/03 01:12:01;;;;;;;1999.90;999.90;;;14.60;53.10;;;;;;5013270;28;20029;-80
2022/05/03 01:14:33;;;;;;;1999.90;999.90;;;14.60;53.20;;;;;;5018392;28;20038;-80
2022/05/03 01:17:29;;;;;;;1999.90;999.90;;;14.50;53.10;;;;;;5010727;28;20050;-80
2022/05/03 01:20:05;;;;;;;1999.90;999.90;;;14.60;53.20;;;;;;5011552;28;20026;-80
2022/05/03 01:23:00;;;;;;;1999.90;999.90;;;14.50;53.20;;;;;;5011249;28;20033;-80
2022/05/03 01:25:44;;;;;;;1999.90;999.90;;;14.50;53.40;;;;;;4994437;28;20053;-80
2022/05/03 01:28:25;;;;;;;1999.90;999.90;;;14.50;53.40;;;;;;5011556;28;20037;-80
2022/05/03 01:30:52;;;;;;;1999.90;999.90;;;14.40;54.10;;;;;;5008880;28;20365;-80
2022/05/03 01:33:25;;;;;;;1999.90;999.90;;;14.40;53.50;;;;;;5011253;28;20042;-80
2022/05/03 01:35:51;;;;;;;1999.90;999.90;;;14.40;53.60;;;;;;4997303;28;20045;-80
2022/05/03 01:38:49;;;;;;;1999.90;999.90;;;14.30;53.60;;;;;;5011081;28;20075;-80
2022/05/03 01:41:23;;;;;;;1999.90;999.90;;;14.30;53.80;;;;;;5037892;28;20052;-80
2022/05/03 01:44:15;;;;;;;1999.90;999.90;;;14.30;53.80;;;;;;4994720;28;20030;-80
2022/05/03 01:46:41;;;;;;;1999.90;999.90;;;14.30;53.80;;;;;;5021945;28;20462;-80
2022/05/03 01:52:29;;;;;;;1999.90;999.90;;;14.20;53.70;;;;;;5029470;28;20397;-80
2022/05/03 01:54:59;;;;;;;1999.90;999.90;;;14.30;53.80;;;;;;5028346;28;20041;-80
2022/05/03 01:58:12;;;;;;;1999.90;999.90;;;14.20;53.90;;;;;;5045100;28;20032;-80
2022/05/03 02:00:39;;;;;;;1999.90;999.90;;;14.20;53.90;;;;;;5005736;28;20045;-80
2022/05/03 02:03:29;;;;;;;1999.90;999.90;;;14.10;53.90;;;;;;4993145;28;20045;-80
2022/05/03 02:06:12;;;;;;;1999.90;999.90;;;14.10;54.00;;;;;;4993621;28;20029;-80
2022/05/03 02:09:03;;;;;;;1999.90;999.90;;;14.10;54.00;;;;;;4993429;28;20046;-80
2022/05/03 02:11:54;;;;;;;1999.90;999.90;;;14.10;54.00;;;;;;4992700;28;20053;-80
2022/05/03 02:14:46;;;;;;;1999.90;999.90;;;14.10;54.10;;;;;;4977555;28;20037;-80
2022/05/03 02:17:39;;;;;;;1999.90;999.90;;;14.00;54.10;;;;;;4980404;28;20202;-80
2022/05/03 02:20:39;;;;;;;1999.90;999.90;;;14.00;54.10;;;;;;4972928;28;20046;-80
2022/05/03 02:23:15;;;;;;;1999.90;999.90;;;13.90;54.10;;;;;;4971140;28;20400;-80
2022/05/03 02:25:42;;;;;;;1999.90;999.90;;;13.90;54.10;;;;;;4971235;28;20041;-80
2022/05/03 02:28:17;;;;;;;1999.90;999.90;;;13.90;54.20;;;;;;4957741;28;20484;-80
2022/05/03 02:30:45;;;;;;;1999.90;999.90;;;13.90;54.20;;;;;;4953016;28;20042;-80
2022/05/03 02:33:18;;;;;;;1999.90;999.90;;;13.90;54.30;;;;;;4938219;28;20567;-80
2022/05/03 02:35:48;;;;;;;1999.90;999.90;;;13.80;54.30;;;;;;4991112;28;20050;-80
2022/05/03 02:38:18;;;;;;;1999.90;999.90;;;13.80;54.40;;;;;;4986640;28;20038;-80
2022/05/03 02:40:45;;;;;;;1999.90;999.90;;;13.80;54.40;;;;;;4987837;28;20033;-80
2022/05/03 02:43:12;;;;;;;1999.90;999.90;;;13.80;54.40;;;;;;4999611;28;20022;-80
2022/05/03 02:45:41;;;;;;;1999.90;999.90;;;13.80;54.40;;;;;;4986130;28;20049;-80
2022/05/03 02:48:14;;;;;;;1999.90;999.90;;;13.80;54.50;;;;;;4994873;28;20483;-80
2022/05/03 02:50:53;;;;;;;1999.90;999.90;;;13.80;54.50;;;;;;4995624;28;20042;-80
2022/05/03 02:53:51;;;;;;;1999.90;999.90;;;13.80;54.50;;;;;;4966826;28;20049;-80
2022/05/03 02:56:23;;;;;;;1999.90;999.90;;;13.70;54.60;;;;;;4997030;28;20037;-80
2022/05/03 02:59:13;;;;;;;1999.90;999.90;;;13.70;54.60;;;;;;5000200;28;20030;-80
2022/05/03 03:02:00;;;;;;;1999.90;999.90;;;13.70;54.60;;;;;;4998246;28;20037;-80
2022/05/03 03:04:44;;;;;;;1999.90;999.90;;;13.70;54.70;;;;;;4986045;28;20040;-80
2022/05/03 03:07:17;;;;;;;1999.90;999.90;;;13.60;54.80;;;;;;5001444;28;20069;-80
2022/05/03 03:09:54;;;;;;;1999.90;999.90;;;13.50;54.80;;;;;;4986181;28;20388;-80
2022/05/03 03:12:40;;;;;;;1999.90;999.90;;;13.50;54.90;;;;;;4981725;28;20041;-80
2022/05/03 03:15:08;;;;;;;1999.90;999.90;;;13.50;55.00;;;;;;5001422;28;20407;-80
2022/05/03 03:17:42;;;;;;;1999.90;999.90;;;13.40;55.10;;;;;;5005744;28;20061;-80
2022/05/03 03:20:09;;;;;;;1999.90;999.90;;;13.40;55.10;;;;;;5026128;28;20036;-80
2022/05/03 03:22:37;;;;;;;1999.90;999.90;;;13.40;55.20;;;;;;5027140;28;20025;-80
2022/05/03 03:25:04;;;;;;;1999.90;999.90;;;13.30;55.20;;;;;;5038512;28;20032;-80
2022/05/03 03:27:31;;;;;;;1999.90;999.90;;;13.30;55.20;;;;;;5027006;28;20026;-80
2022/05/03 03:29:58;;;;;;;1999.90;999.90;;;13.30;55.20;;;;;;5012827;28;20496;-80
2022/05/03 03:32:27;;;;;;;1999.90;999.90;;;13.30;55.10;;;;;;5025582;28;20042;-80
2022/05/03 03:34:54;;;;;;;1999.90;999.90;;;13.30;55.20;;;;;;5009318;28;20022;-80
2022/05/03 03:37:24;;;;;;;1999.90;999.90;;;13.30;55.20;;;;;;5028194;28;20497;-80
2022/05/03 03:39:50;;;;;;;1999.90;999.90;;;13.30;55.20;;;;;;5039459;28;20022;-80
2022/05/03 03:42:16;;;;;;;1999.90;999.90;;;13.30;55.20;;;;;;5029553;28;20505;-80
2022/05/03 03:44:42;;;;;;;1999.90;999.90;;;13.30;55.30;;;;;;4994244;28;20033;-80
2022/05/03 03:47:08;;;;;;;1999.90;999.90;;;13.30;55.30;;;;;;5028471;28;20041;-80
2022/05/03 03:49:34;;;;;;;1999.90;999.90;;;13.30;55.30;;;;;;5021289;28;20419;-81
2022/05/03 03:52:01;;;;;;;1999.90;999.90;;;13.30;55.30;;;;;;5025981;28;20029;-81
2022/05/03 03:54:27;;;;;;;1999.90;999.90;;;13.30;55.30;;;;;;5011132;28;20034;-80
2022/05/03 03:56:54;;;;;;;1999.90;999.90;;;13.30;55.40;;;;;;5011996;28;20486;-80
2022/05/03 03:59:20;;;;;;;1999.90;999.90;;;13.30;55.40;;;;;;5025949;28;20037;-80
2022/05/03 04:01:48;;;;;;;1999.90;999.90;;;13.30;55.50;;;;;;5008789;28;20383;-80
2022/05/03 04:04:16;;;;;;;1999.90;999.90;;;13.30;55.40;;;;;;5025314;28;20033;-80
2022/05/03 04:06:42;;;;;;;1999.90;999.90;;;13.20;55.50;;;;;;5024025;28;20021;-80
2022/05/03 04:09:09;;;;;;;1999.90;999.90;;;13.20;55.50;;;;;;5029825;28;20032;-80
2022/05/03 04:11:44;;;;;;;1999.90;999.90;;;13.20;56.10;;;;;;5022512;28;20418;-80
2022/05/03 04:14:11;;;;;;;1999.90;999.90;;;13.20;55.60;;;;;;5007139;28;20041;-80
2022/05/03 04:16:37;;;;;;;1999.90;999.90;;;13.20;55.60;;;;;;5014661;28;20049;-81
2022/05/03 04:19:03;;;;;;;1999.90;999.90;;;13.20;55.60;;;;;;5015128;28;20056;-81
2022/05/03 04:21:29;;;;;;;1999.90;999.90;;;13.20;55.60;;;;;;5046155;28;20458;-80
2022/05/03 04:23:56;;;;;;;1999.90;999.90;;;13.20;56.20;;;;;;5031998;28;20040;-81
2022/05/03 04:26:22;;;;;;;1999.90;999.90;;;13.20;55.60;;;;;;5029150;28;20045;-81
2022/05/03 04:28:48;;;;;;;1999.90;999.90;;;13.20;55.60;;;;;;5029231;28;20056;-81
2022/05/03 04:31:14;;;;;;;1999.90;999.90;;;13.20;55.60;;;;;;5029826;28;20052;-81
2022/05/03 04:33:40;;;;;;;1999.90;999.90;;;13.20;55.60;;;;;;5027398;28;20398;-81
2022/05/03 04:36:06;;;;;;;1999.90;999.90;;;13.20;55.60;;;;;;5045271;28;20030;-81
2022/05/03 04:38:32;;;;;;;1999.90;999.90;;;13.30;55.60;;;;;;5029383;28;20041;-81
2022/05/03 04:40:59;;;;;;;1999.90;999.90;;;13.20;55.60;;;;;;5030250;28;20049;-80
2022/05/03 04:43:26;;;;;;;1999.90;999.90;;;13.20;55.60;;;;;;5024684;28;20029;-80
2022/05/03 04:45:52;;;;;;;1999.90;999.90;;;13.20;55.70;;;;;;5029724;28;20464;-81
2022/05/03 04:48:18;;;;;;;1999.90;999.90;;;13.20;55.80;;;;;;5045574;28;20036;-81
2022/05/03 04:50:44;;;;;;;1999.90;999.90;;;13.20;55.80;;;;;;5029788;28;20510;-81
2022/05/03 04:53:10;;;;;;;1999.90;999.90;;;13.20;55.80;;;;;;5031509;28;20038;-81
2022/05/03 04:55:39;;;;;;;1999.90;999.90;;;13.20;55.90;;;;;;5040221;28;20401;-81
2022/05/03 04:58:05;;;;;;;1999.90;999.90;;;13.10;55.90;;;;;;5012816;28;20053;-81
2022/05/03 05:00:31;;;;;;;1999.90;999.90;;;13.10;55.90;;;;;;5029927;28;20076;-81
2022/05/03 05:02:58;;;;;;;1999.90;999.90;;;13.10;55.90;;;;;;5031233;28;20030;-81
2022/05/03 05:05:24;;;;;;;1999.90;999.90;;;13.10;55.90;;;;;;5029605;28;20486;-81
2022/05/03 05:07:50;;;;;;;1999.90;999.90;;;13.10;55.90;;;;;;5038251;28;20040;-81
2022/05/03 05:10:26;;;;;;;1999.90;999.90;;;13.10;56.00;;;;;;5030586;28;20048;-81
2022/05/03 05:12:54;;;;;;;1999.90;999.90;;;13.10;56.00;;;;;;5030321;28;20034;-81
2022/05/03 05:15:23;;;;;;;1999.90;999.90;;;13.10;56.00;;;;;;5028265;28;20036;-81
2022/05/03 05:17:56;;;;;;;1999.90;999.90;;;13.10;56.10;;;;;;5013574;28;20522;-81
2022/05/03 05:20:22;;;;;;;1999.90;999.90;;;13.00;56.10;;;;;;5029283;28;20032;-81
2022/05/03 05:22:49;;;;;;;1999.90;999.90;;;13.10;56.20;;;;;;5029361;28;20036;-81
2022/05/03 05:25:15;;;;;;;1999.90;999.90;;;13.00;56.20;;;;;;5023704;28;20052;-81
2022/05/03 05:27:41;;;;;;;1999.90;999.90;;;13.00;56.20;;;;;;4997523;28;20390;-80
2022/05/03 05:30:08;;;;;;;1999.90;999.90;;;13.00;56.20;;;;;;5010905;28;20467;-81
2022/05/03 05:32:34;;;;;;;1999.90;999.90;;;13.00;56.20;;;;;;5029533;28;20394;-81
2022/05/03 05:35:01;;;;;;;1999.90;999.90;;;13.00;56.20;;;;;;5029099;28;20017;-81
2022/05/03 05:37:27;;;;;;;1999.90;999.90;;;13.10;56.20;;;;;;5028835;28;20033;-81
2022/05/03 05:39:53;;;;;;;1999.90;999.90;;;13.10;56.10;;;;;;5029217;28;20037;-81
2022/05/03 05:42:19;;;;;;;1999.90;999.90;;;13.10;56.10;;;;;;5030358;28;20041;-81
2022/05/03 05:44:46;;;;;;;1999.90;999.90;;;13.10;56.20;;;;;;5030462;28;20387;-81
2022/05/03 05:47:12;;;;;;;1999.90;999.90;;;13.10;56.10;;;;;;5017335;28;20040;-81
2022/05/03 05:49:38;;;;;;;1999.90;999.90;;;13.20;56.10;;;;;;5014992;28;20045;-81
2022/05/03 05:54:49;;;;;;;1999.90;999.90;;;13.20;56.00;;;;;;5016389;28;20387;-81
2022/05/03 05:57:15;;;;;;;1999.90;999.90;;;13.20;56.00;;;;;;5031105;28;20045;-81
2022/05/03 05:59:41;;;;;;;1999.90;999.90;;;13.20;56.00;;;;;;5012122;28;20485;-81
2022/05/03 06:02:07;;;;;;;1999.90;999.90;;;13.30;56.10;;;;;;5027848;28;20037;-81
2022/05/03 06:04:33;;;;;;;1999.90;999.90;;;13.30;56.10;;;;;;5028476;28;20026;-81
2022/05/03 06:07:00;;;;;;;1999.90;999.90;;;13.40;56.00;;;;;;5028328;28;20033;-82
2022/05/03 06:09:26;;;;;;;1999.90;999.90;;;13.40;55.90;;;;;;5027312;28;20041;-82
2022/05/03 06:11:52;;;;;;;1999.90;999.90;;;13.50;55.90;;;;;;5026036;28;20032;-82
2022/05/03 06:14:18;;;;;;;1999.90;999.90;;;13.50;55.90;;;;;;5027988;28;20048;-82
2022/05/03 06:16:51;;;;;;;1999.90;999.90;;;13.60;55.90;;;;;;5027363;28;20454;-82
2022/05/03 06:19:17;;;;;;;1999.90;999.90;;;13.60;55.80;;;;;;5039407;28;20105;-82
2022/05/03 06:21:43;;;;;;;1999.90;999.90;;;13.80;55.70;;;;;;5010718;28;20494;-82
2022/05/03 06:24:10;;;;;;;1999.90;999.90;;;14.00;55.50;;;;;;5026386;28;20060;-82
2022/05/03 06:26:37;;;;;;;1999.90;999.90;;;14.20;55.30;;;;;;5029215;28;20029;-82
2022/05/03 06:29:04;;;;;;;1999.90;999.90;;;14.40;55.10;;;;;;5018311;28;20382;-82
2022/05/03 06:31:30;;;;;;;1999.90;999.90;;;14.50;55.00;;;;;;5013518;28;20497;-82
2022/05/03 06:33:56;;;;;;;1999.90;999.90;;;14.70;54.90;;;;;;5026939;28;20033;-82
2022/05/03 06:36:22;;;;;;;1999.90;999.90;;;14.80;54.80;;;;;;5043673;28;20025;-82
2022/05/03 06:38:49;;;;;;;1999.90;999.90;;;14.90;54.80;;;;;;5028104;28;20482;-82
2022/05/03 06:41:16;;;;;;;1999.90;999.90;;;15.00;54.60;;;;;;5028196;28;20025;-81
2022/05/03 06:43:42;;;;;;;1999.90;999.90;;;15.20;55.10;;;;;;5029058;28;20036;-81
2022/05/03 06:46:09;;;;;;;1999.90;999.90;;;15.30;54.40;;;;;;5038634;28;20399;-82
2022/05/03 06:48:35;;;;;;;1999.90;999.90;;;15.40;54.40;;;;;;5026952;28;20037;-82
2022/05/03 06:51:01;;;;;;;1999.90;999.90;;;15.40;54.30;;;;;;5029989;28;20048;-82
2022/05/03 06:53:27;;;;;;;1999.90;999.90;;;15.50;54.30;;;;;;5015923;28;20029;-82
2022/05/03 06:55:53;;;;;;;1999.90;999.90;;;15.60;54.30;;;;;;5014636;28;20030;-82
2022/05/03 06:58:19;;;;;;;1999.90;999.90;;;15.60;54.30;;;;;;5027417;28;20060;-82
2022/05/03 07:00:45;;;;;;;1999.90;999.90;;;15.80;54.30;;;;;;5026543;28;20502;-82
2022/05/03 07:03:12;;;;;;;1999.90;999.90;;;15.80;54.10;;;;;;5030274;28;20033;-82
2022/05/03 07:05:39;;;;;;;1999.90;999.90;;;15.90;54.00;;;;;;5029928;28;20033;-82
2022/05/03 07:08:08;;;;;;;1999.90;999.90;;;16.10;53.80;;;;;;5027456;28;20032;-82
2022/05/03 07:10:34;;;;;;;1999.90;999.90;;;16.20;53.90;;;;;;5029183;28;20042;-82
2022/05/03 07:13:00;;;;;;;1999.90;999.90;;;16.20;53.70;;;;;;5028901;28;20024;-82
2022/05/03 07:15:27;;;;;;;1999.90;999.90;;;16.30;53.70;;;;;;5042783;28;20048;-82
2022/05/03 07:23:24;;;;;;;1999.90;999.90;;;16.60;53.50;;;;;;5027787;28;20033;-82
2022/05/03 07:25:50;;;;;;;1999.90;999.90;;;16.70;53.50;;;;;;5027412;28;20021;-82
2022/05/03 07:28:16;;;;;;;1999.90;999.90;;;16.80;53.40;;;;;;5021596;28;20045;-82
2022/05/03 07:30:43;;;;;;;1999.90;999.90;;;16.90;53.20;;;;;;5009586;28;20049;-82
2022/05/03 07:33:09;;;;;;;1999.90;999.90;;;17.00;53.10;;;;;;5042212;28;20394;-82
2022/05/03 07:35:35;;;;;;;1999.90;999.90;;;17.10;53.00;;;;;;5026712;28;20038;-82
2022/05/03 07:38:01;;;;;;;1999.90;999.90;;;17.20;52.90;;;;;;5025994;28;20044;-82
2022/05/03 07:40:28;;;;;;;1999.90;999.90;;;17.30;52.90;;;;;;5027306;28;20032;-83
2022/05/03 07:42:54;;;;;;;1999.90;999.90;;;17.40;52.80;;;;;;5039090;28;20040;-82
2022/05/03 07:45:20;;;;;;;1999.90;999.90;;;17.30;53.30;;;;;;5042842;28;20864;-83
2022/05/03 07:47:47;;;;;;;1999.90;999.90;;;17.40;52.80;;;;;;5027669;28;20041;-83
2022/05/03 07:50:13;;;;;;;1999.90;999.90;;;17.50;52.70;;;;;;5028148;28;20025;-82
2022/05/03 07:52:39;;;;;;;1999.90;999.90;;;17.60;52.60;;;;;;5013614;28;20367;-82
2022/05/03 07:55:07;;;;;;;1999.90;999.90;;;17.70;52.40;;;;;;5029681;28;20021;-83
2022/05/03 07:57:33;;;;;;;1999.90;999.90;;;17.90;52.20;;;;;;4997429;28;20041;-82
2022/05/03 08:00:00;;;;;;;1999.90;999.90;;;18.10;51.90;;;;;;5016575;28;20026;-83
2022/05/03 08:02:26;;;;;;;1999.90;999.90;;;18.20;51.70;;;;;;5030245;28;20040;-83
2022/05/03 08:04:53;;;;;;;1999.90;999.90;;;18.30;51.60;;;;;;5039200;28;20501;-82
2022/05/03 08:07:19;;;;;;;1999.90;999.90;;;18.40;51.40;;;;;;5031962;28;20466;-82
2022/05/03 08:09:46;;;;;;;1999.90;999.90;;;18.50;51.20;;;;;;5014601;28;20037;-83
2022/05/03 08:12:12;;;;;;;1999.90;999.90;;;18.50;51.20;;;;;;5038355;28;20026;-83
2022/05/03 08:14:39;;;;;;;1999.90;999.90;;;18.50;51.20;;;;;;5015509;28;20026;-83
2022/05/03 08:17:06;;;;;;;1999.90;999.90;;;18.50;51.20;;;;;;5028644;28;20049;-83
2022/05/03 08:19:32;;;;;;;1999.90;999.90;;;18.60;51.20;;;;;;4999647;28;20048;-83
2022/05/03 08:21:58;;;;;;;1999.90;999.90;;;18.80;50.90;;;;;;5042105;28;20017;-83
2022/05/03 08:24:24;;;;;;;1999.90;999.90;;;18.90;50.70;;;;;;5029803;28;20390;-83
2022/05/03 08:26:50;;;;;;;1999.90;999.90;;;19.00;50.50;;;;;;5030794;28;20025;-83
2022/05/03 08:29:16;;;;;;;1999.90;999.90;;;19.10;50.30;;;;;;4995550;28;20042;-83
2022/05/03 08:31:43;;;;;;;1999.90;999.90;;;19.10;50.30;;;;;;5024511;28;20056;-83
2022/05/03 08:34:09;;;;;;;1999.90;999.90;;;19.00;50.30;;;;;;5041507;28;20458;-83
2022/05/03 08:36:35;;;;;;;1999.90;999.90;;;18.90;50.60;;;;;;5012927;28;20470;-83
2022/05/03 08:44:34;;;;;;;1999.90;999.90;;;18.80;50.80;;;;;;5030254;28;20013;-82
2022/05/03 08:47:02;;;;;;;1999.90;999.90;;;18.90;50.80;;;;;;5036979;28;20490;-83
2022/05/03 08:49:49;;;;;;;1999.90;999.90;;;19.10;50.50;;;;;;5017770;28;20758;-82
2022/05/03 08:52:16;;;;;;;1999.90;999.90;;;19.30;50.30;;;;;;5030027;28;20030;-83
2022/05/03 08:54:43;;;;;;;1999.90;999.90;;;19.50;50.00;;;;;;5043344;28;20471;-83
2022/05/03 08:57:09;;;;;;;1999.90;999.90;;;19.80;49.70;;;;;;5028190;28;20045;-83
2022/05/03 08:59:36;;;;;;;1999.90;999.90;;;20.00;49.50;;;;;;5012897;28;20044;-83
2022/05/03 09:02:03;;;;;;;1999.90;999.90;;;20.10;49.40;;;;;;5011358;28;20383;-83
2022/05/03 09:04:30;;;;;;;1999.90;999.90;;;20.30;49.20;;;;;;5012215;28;20025;-83
2022/05/03 09:06:56;;;;;;;1999.90;999.90;;;20.30;49.00;;;;;;5029741;28;20033;-83
2022/05/03 09:09:22;;;;;;;1999.90;999.90;;;20.30;49.10;;;;;;5028515;28;20049;-83
2022/05/03 09:11:49;;;;;;;1999.90;999.90;;;20.30;49.20;;;;;;5011922;28;20057;-83
2022/05/03 09:14:48;;;;;;;1999.90;999.90;;;20.30;49.20;;;;;;5027629;28;20025;-83
2022/05/03 09:17:14;;;;;;;1999.90;999.90;;;20.30;49.10;;;;;;5010978;28;20061;-83
2022/05/03 09:19:40;;;;;;;1999.90;999.90;;;20.40;49.00;;;;;;5008146;28;20038;-83
2022/05/03 09:25:04;;;;;;;1999.90;999.90;;;20.50;48.70;;;;;;4998784;28;20463;-83
2022/05/03 09:27:31;;;;;;;1999.90;999.90;;;20.50;48.60;;;;;;5008454;28;20042;-83
2022/05/03 09:30:06;;;;;;;1999.90;999.90;;;20.30;48.40;;;;;;5011088;28;20150;-83
2022/05/03 09:32:40;;;;;;;1999.90;999.90;;;20.20;48.60;;;;;;5008083;28;20039;-83
2022/05/03 09:35:06;;;;;;;1999.90;999.90;;;20.10;48.80;;;;;;5007906;28;20518;-83
2022/05/03 09:37:42;;;;;;;1999.90;999.90;;;20.20;48.80;;;;;;5003449;28;20415;-83
2022/05/03 09:40:12;;;;;;;1999.90;999.90;;;20.30;48.50;;;;;;5011515;28;20429;-83
2022/05/03 09:42:40;;;;;;;1999.90;999.90;;;20.50;48.30;;;;;;4992325;28;20045;-83
2022/05/03 09:45:09;;;;;;;1999.90;999.90;;;20.60;47.90;;;;;;4993406;28;20387;-83
2022/05/03 09:47:49;;;;;;;1999.90;999.90;;;20.70;47.80;;;;;;5011892;28;20510;-83
2022/05/03 09:50:45;;;;;;;1999.90;999.90;;;20.70;47.70;;;;;;5010987;28;20022;-83
2022/05/03 09:53:18;;;;;;;1999.90;999.90;;;20.80;47.70;;;;;;4978508;28;20795;-83
2022/05/03 09:55:47;;;;;;;1999.90;999.90;;;20.80;47.60;;;;;;4966960;28;20027;-83
2022/05/03 09:58:14;;;;;;;1999.90;999.90;;;20.70;47.50;;;;;;4973409;28;20058;-83
2022/05/03 10:00:42;;;;;;;1999.90;999.90;;;20.60;47.60;;;;;;4986491;28;20033;-83
2022/05/03 10:03:09;;;;;;;1999.90;999.90;;;20.60;47.60;;;;;;4990280;28;20046;-83
2022/05/03 10:05:37;;;;;;;1999.90;999.90;;;20.70;47.50;;;;;;4978333;28;20042;-83
2022/05/03 10:08:04;;;;;;;1999.90;999.90;;;20.70;47.30;;;;;;4986619;28;20026;-83
2022/05/03 10:10:31;;;;;;;1999.90;999.90;;;20.70;47.20;;;;;;4973931;28;20488;-83
2022/05/03 10:12:58;;;;;;;1999.90;999.90;;;20.70;47.10;;;;;;4962876;28;20042;-82
2022/05/03 10:21:29;;;;;;;1999.90;999.90;;;20.50;47.30;;;;;;4991306;28;20042;-83
2022/05/03 10:24:04;;;;;;;1999.90;999.90;;;20.30;47.20;;;;;;4956948;28;20057;-83
2022/05/03 10:26:52;;;;;;;1999.90;999.90;;;20.20;47.30;;;;;;4974865;28;20587;-83
2022/05/03 10:29:19;;;;;;;1999.90;999.90;;;20.20;47.40;;;;;;5000866;28;20042;-83
2022/05/03 10:31:55;;;;;;;1999.90;999.90;;;20.10;47.40;;;;;;5037015;28;20033;-83
2022/05/03 10:34:40;;;;;;;1999.90;999.90;;;20.00;47.40;;;;;;5029685;28;20037;-83
2022/05/03 10:37:10;;;;;;;1999.90;999.90;;;20.00;47.40;;;;;;5027687;28;20022;-83
2022/05/03 10:40:08;;;;;;;1999.90;999.90;;;19.90;47.30;;;;;;5011899;28;20042;-82
2022/05/03 10:42:34;;;;;;;1999.90;999.90;;;19.80;47.40;;;;;;5028493;28;20028;-83
2022/05/03 10:45:03;;;;;;;1999.90;999.90;;;19.80;47.50;;;;;;5031434;28;20033;-83
2022/05/03 10:47:48;;;;;;;1999.90;999.90;;;19.70;47.50;;;;;;5032291;28;20037;-83
2022/05/03 10:50:17;;;;;;;1999.90;999.90;;;19.70;47.50;;;;;;5030235;28;20037;-83
2022/05/03 10:52:45;;;;;;;1999.90;999.90;;;19.60;47.40;;;;;;5027879;28;20018;-83
2022/05/03 10:55:11;;;;;;;1999.90;999.90;;;19.60;47.40;;;;;;5038791;28;20482;-83
2022/05/03 10:58:15;;;;;;;1999.90;999.90;;;19.60;47.50;;;;;;5026481;28;20030;-83
2022/05/03 11:01:03;;;;;;;1999.90;999.90;;;19.60;47.50;;;;;;5012402;28;20049;-83
2022/05/03 11:03:30;;;;;;;1999.90;999.90;;;19.60;47.50;;;;;;5028914;28;20482;-83
2022/05/03 11:06:27;;;;;;;1999.90;999.90;;;19.50;47.40;;;;;;4993781;28;20041;-83
2022/05/03 11:14:24;;;;;;;1999.90;999.90;;;19.40;47.40;;;;;;5024927;28;20041;-83
2022/05/03 11:17:04;;;;;;;1999.90;999.90;;;19.40;47.30;;;;;;5021595;28;20406;-83
2022/05/03 11:19:49;;;;;;;1999.90;999.90;;;19.40;47.30;;;;;;5027241;28;20406;-83
2022/05/03 11:22:21;;;;;;;1999.90;999.90;;;19.40;47.30;;;;;;5036801;28;20021;-83
2022/05/03 11:24:52;;;;;;;1999.90;999.90;;;19.40;47.40;;;;;;5045886;28;20029;-83
2022/05/03 11:27:19;;;;;;;1999.90;999.90;;;19.40;47.30;;;;;;5036274;28;20025;-83
2022/05/03 11:29:56;;;;;;;1999.90;999.90;;;19.40;47.30;;;;;;4999716;28;20364;-83
2022/05/03 11:32:39;;;;;;;1999.90;999.90;;;19.40;47.20;;;;;;5032177;28;20505;-83
2022/05/03 11:35:09;;;;;;;1999.90;999.90;;;19.60;47.20;;;;;;5024340;28;20029;-83
2022/05/03 11:37:36;;;;;;;1999.90;999.90;;;19.60;47.10;;;;;;5020815;28;20025;-83
2022/05/03 11:40:08;;;;;;;1999.90;999.90;;;19.70;46.90;;;;;;5033233;28;20386;-83
2022/05/03 11:42:38;;;;;;;1999.90;999.90;;;19.80;46.90;;;;;;5034401;28;20025;-83
2022/05/03 11:45:05;;;;;;;1999.90;999.90;;;19.90;46.80;;;;;;5015160;28;20033;-83
2022/05/03 11:47:34;;;;;;;1999.90;999.90;;;20.00;46.60;;;;;;5035144;28;20041;-83
2022/05/03 11:50:00;;;;;;;1999.90;999.90;;;20.00;46.60;;;;;;5040772;28;20017;-83
2022/05/03 11:55:58;;;;;;;1999.90;999.90;;;20.10;46.50;;;;;;5032753;28;20018;-83
2022/05/03 11:58:00;;;;;;;1999.90;999.90;;;20.20;46.40;;;;;;5045107;28;20406;-83
2022/05/03 12:00:26;;;;;;;1999.90;999.90;;;20.30;46.30;;;;;;5031707;28;20029;-83
2022/05/03 12:02:52;;;;;;;1999.90;999.90;;;20.40;46.10;;;;;;5031239;28;20036;-83
2022/05/03 12:05:19;;;;;;;1999.90;999.90;;;20.30;46.20;;;;;;5033682;28;20402;-83
2022/05/03 12:07:49;;;;;;;1999.90;999.90;;;20.30;46.20;;;;;;5035101;28;20044;-83
2022/05/03 12:10:16;;;;;;;1999.90;999.90;;;20.20;46.10;;;;;;5030965;28;20037;-83
2022/05/03 12:12:45;;;;;;;1999.90;999.90;;;20.20;46.00;;;;;;5033908;28;20041;-83
2022/05/03 12:15:21;;;;;;;1999.90;999.90;;;20.10;46.20;;;;;;5031243;28;20037;-83
2022/05/03 12:18:29;;;;;;;1999.90;999.90;;;20.10;46.30;;;;;;5017049;28;20052;-83
2022/05/03 12:20:57;;;;;;;1999.90;999.90;;;20.20;46.10;;;;;;5030146;28;20495;-83
2022/05/03 12:23:44;;;;;;;1999.90;999.90;;;20.30;45.90;;;;;;5026882;28;20046;-83
2022/05/03 12:26:14;;;;;;;1999.90;999.90;;;20.50;45.80;;;;;;5028494;28;20040;-83
2022/05/03 12:28:45;;;;;;;1999.90;999.90;;;20.60;45.50;;;;;;4997790;28;20037;-83
2022/05/03 12:31:12;;;;;;;1999.90;999.90;;;20.70;45.40;;;;;;5003636;28;20033;-83
2022/05/03 12:33:55;;;;;;;1999.90;999.90;;;20.80;45.30;;;;;;5014267;28;20040;-83
2022/05/03 12:36:34;;;;;;;1999.90;999.90;;;20.80;45.20;;;;;;5013367;28;20041;-83
2022/05/03 12:39:13;;;;;;;1999.90;999.90;;;20.80;45.10;;;;;;5015468;28;20044;-83
2022/05/03 12:41:39;;;;;;;1999.90;999.90;;;20.90;45.10;;;;;;5014998;28;20045;-83
2022/05/03 12:44:13;;;;;;;1999.90;999.90;;;20.90;44.90;;;;;;5012721;28;20041;-83
2022/05/03 12:46:40;;;;;;;1999.90;999.90;;;21.00;44.80;;;;;;5010428;28;20383;-83
2022/05/03 12:49:11;;;;;;;1999.90;999.90;;;21.00;44.70;;;;;;5011305;28;20056;-83
2022/05/03 12:51:39;;;;;;;1999.90;999.90;;;21.00;44.70;;;;;;5011841;28;20033;-83
2022/05/03 12:54:07;;;;;;;1999.90;999.90;;;21.00;44.60;;;;;;4998733;28;20041;-83